Time;durP1;ratioP1;P1;durP2;ratioP2;P2;SDS_P1;SDS_P2;PMS_P1;PMS_P2;Temp;Humidity;BMP_temperature;BMP_pressure;BME280_temperature;BME280_humidity;BME280_pressure;Samples;Min_cycle;Max_cycle;Signal;HPM_P1;HPM_P2
2023/06/02 00:01:53;;;;;;;;;;;21.40;92.10;;;;;;5095817;28;19958;-39
2023/06/02 00:04:23;;;;;;;;;;;21.40;92.00;;;;;;5095542;28;19905;-39
2023/06/02 00:06:50;;;;;;;;;;;21.40;92.00;;;;;;5095648;28;19950;-39
2023/06/02 00:09:16;;;;;;;;;;;21.40;92.10;;;;;;5095347;28;19929;-39
2023/06/02 00:11:41;;;;;;;;;;;21.40;92.10;;;;;;5095394;28;19908;-39
2023/06/02 00:14:07;;;;;;;;;;;21.40;92.10;;;;;;5095343;28;19912;-39
2023/06/02 00:16:33;;;;;;;;;;;21.30;92.10;;;;;;5077411;28;19911;-39
2023/06/02 00:18:59;;;;;;;;;;;21.40;92.10;;;;;;5095499;28;19980;-39
2023/06/02 00:21:26;;;;;;;;;;;21.30;92.30;;;;;;5095089;28;20397;-39
2023/06/02 00:23:52;;;;;;;;;;;21.40;92.10;;;;;;5095346;28;20008;-39
2023/06/02 00:26:17;;;;;;;;;;;21.30;92.10;;;;;;5095100;28;19992;-40
2023/06/02 00:28:43;;;;;;;;;;;21.40;92.10;;;;;;5094301;28;19915;-39
2023/06/02 00:31:09;;;;;;;;;;;21.30;92.10;;;;;;5095231;28;19908;-39
2023/06/02 00:33:34;;;;;;;;;;;21.30;92.10;;;;;;5094944;28;20364;-39
2023/06/02 00:36:00;;;;;;;;;;;21.30;92.10;;;;;;5094899;28;19905;-39
2023/06/02 00:38:25;;;;;;;;;;;21.30;92.10;;;;;;5095137;28;19904;-39
2023/06/02 00:40:50;;;;;;;;;;;21.30;92.00;;;;;;5095484;28;19904;-39
2023/06/02 00:43:16;;;;;;;;;;;21.30;92.00;;;;;;5095076;28;19915;-39
2023/06/02 00:45:41;;;;;;;;;;;21.30;92.00;;;;;;5095107;28;19947;-39
2023/06/02 00:48:07;;;;;;;;;;;21.30;92.00;;;;;;5094621;28;19955;-39
2023/06/02 00:50:33;;;;;;;;;;;21.30;92.00;;;;;;5094861;28;19908;-39
2023/06/02 00:52:59;;;;;;;;;;;21.30;92.00;;;;;;5094699;28;19911;-39
2023/06/02 00:55:27;;;;;;;;;;;21.30;92.00;;;;;;5094652;28;20274;-39
2023/06/02 00:57:53;;;;;;;;;;;21.30;92.00;;;;;;5094940;28;19904;-39
2023/06/02 01:00:20;;;;;;;;;;;21.30;92.00;;;;;;5094483;28;19904;-39
2023/06/02 01:02:45;;;;;;;;;;;21.30;92.00;;;;;;5094488;28;19908;-39
2023/06/02 01:05:12;;;;;;;;;;;21.20;92.00;;;;;;5094703;28;19911;-39
2023/06/02 01:07:39;;;;;;;;;;;21.20;92.00;;;;;;5094646;28;20006;-39
2023/06/02 01:10:05;;;;;;;;;;;21.30;92.00;;;;;;5094578;28;19912;-38
2023/06/02 01:12:32;;;;;;;;;;;21.20;92.00;;;;;;5094600;28;19966;-39
2023/06/02 01:14:58;;;;;;;;;;;21.20;91.90;;;;;;5094645;28;19904;-39
2023/06/02 01:17:27;;;;;;;;;;;21.20;92.00;;;;;;5094268;28;20320;-39
2023/06/02 01:19:53;;;;;;;;;;;21.20;92.00;;;;;;5076354;28;19927;-39
2023/06/02 01:22:23;;;;;;;;;;;21.20;92.00;;;;;;5094823;28;20327;-39
2023/06/02 01:24:49;;;;;;;;;;;21.20;92.00;;;;;;5094504;28;19904;-41
2023/06/02 01:27:16;;;;;;;;;;;21.20;92.00;;;;;;5094463;28;19981;-39
2023/06/02 01:29:42;;;;;;;;;;;21.20;92.00;;;;;;5094381;28;20262;-39
2023/06/02 01:32:28;;;;;;;;;;;21.20;92.00;;;;;;5094137;28;19904;-39
2023/06/02 01:34:53;;;;;;;;;;;21.20;92.00;;;;;;5093816;28;19904;-39
2023/06/02 01:37:20;;;;;;;;;;;21.20;91.90;;;;;;5094625;28;19911;-39
2023/06/02 01:39:47;;;;;;;;;;;21.20;92.00;;;;;;5094128;28;19904;-39
2023/06/02 01:42:13;;;;;;;;;;;21.20;91.90;;;;;;5094347;28;19904;-39
2023/06/02 01:44:40;;;;;;;;;;;21.20;91.90;;;;;;5093833;28;19920;-40
2023/06/02 01:47:06;;;;;;;;;;;21.20;91.90;;;;;;5093996;28;19904;-39
2023/06/02 01:49:31;;;;;;;;;;;21.20;92.00;;;;;;5094259;28;20369;-39
2023/06/02 01:51:57;;;;;;;;;;;21.20;91.90;;;;;;5094293;28;20010;-39
2023/06/02 01:54:22;;;;;;;;;;;21.20;91.90;;;;;;5094000;28;19905;-39
2023/06/02 01:56:48;;;;;;;;;;;21.20;91.90;;;;;;5093940;28;19908;-39
2023/06/02 01:59:13;;;;;;;;;;;21.20;92.00;;;;;;5094127;28;19911;-39
2023/06/02 02:01:44;;;;;;;;;;;21.20;92.00;;;;;;5093878;28;19904;-39
2023/06/02 02:04:10;;;;;;;;;;;21.20;92.00;;;;;;5094190;28;19904;-39
2023/06/02 02:06:37;;;;;;;;;;;21.20;92.00;;;;;;5093889;28;20037;-39
2023/06/02 02:09:03;;;;;;;;;;;21.20;92.00;;;;;;5093967;28;20003;-39
2023/06/02 02:11:29;;;;;;;;;;;21.10;92.00;;;;;;5094038;28;19960;-39
2023/06/02 02:13:55;;;;;;;;;;;21.20;92.00;;;;;;5094027;28;19998;-39
2023/06/02 02:16:21;;;;;;;;;;;21.20;92.00;;;;;;5094039;28;19908;-39
2023/06/02 02:18:46;;;;;;;;;;;21.20;92.10;;;;;;5094022;28;19904;-39
2023/06/02 02:21:12;;;;;;;;;;;21.10;92.00;;;;;;5093944;28;19904;-39
2023/06/02 02:23:38;;;;;;;;;;;21.10;92.10;;;;;;5094015;28;20258;-39
2023/06/02 02:26:03;;;;;;;;;;;21.20;92.10;;;;;;5094002;28;20068;-39
2023/06/02 02:28:29;;;;;;;;;;;21.10;92.10;;;;;;5093572;28;19915;-40
2023/06/02 02:30:54;;;;;;;;;;;21.10;92.10;;;;;;5093585;28;19916;-39
2023/06/02 02:33:20;;;;;;;;;;;21.10;92.20;;;;;;5093689;28;19947;-39
2023/06/02 02:35:46;;;;;;;;;;;21.10;92.20;;;;;;5093610;28;19904;-39
2023/06/02 02:38:12;;;;;;;;;;;21.20;92.20;;;;;;5093803;28;19904;-39
2023/06/02 02:40:37;;;;;;;;;;;21.10;92.20;;;;;;5075724;28;19952;-39
2023/06/02 02:43:03;;;;;;;;;;;21.10;92.20;;;;;;5093232;28;19991;-39
2023/06/02 02:45:28;;;;;;;;;;;21.10;92.30;;;;;;5093450;28;20347;-39
2023/06/02 02:47:54;;;;;;;;;;;21.10;92.30;;;;;;5093660;28;20017;-39
2023/06/02 02:50:19;;;;;;;;;;;21.10;92.30;;;;;;5093894;28;20273;-39
2023/06/02 02:52:45;;;;;;;;;;;21.10;92.30;;;;;;5097351;28;19908;-39
2023/06/02 02:55:10;;;;;;;;;;;21.10;92.30;;;;;;5097041;28;20006;-39
2023/06/02 02:57:36;;;;;;;;;;;21.10;92.30;;;;;;5096968;28;19904;-39
2023/06/02 03:00:04;;;;;;;;;;;21.10;92.30;;;;;;5096881;28;20259;-39
2023/06/02 03:02:30;;;;;;;;;;;21.10;92.30;;;;;;5096864;28;19904;-39
2023/06/02 03:04:56;;;;;;;;;;;21.10;92.30;;;;;;5097040;28;19910;-39
2023/06/02 03:07:24;;;;;;;;;;;21.10;92.40;;;;;;5096940;28;19908;-39
2023/06/02 03:09:50;;;;;;;;;;;21.10;92.40;;;;;;5097131;28;19951;-39
2023/06/02 03:12:15;;;;;;;;;;;21.10;92.40;;;;;;5096898;28;20350;-39
2023/06/02 03:14:41;;;;;;;;;;;21.10;92.40;;;;;;5096862;28;19911;-39
2023/06/02 03:17:06;;;;;;;;;;;21.10;92.40;;;;;;5096819;28;19927;-39
2023/06/02 03:19:33;;;;;;;;;;;21.10;92.40;;;;;;5096839;28;19904;-39
2023/06/02 03:21:59;;;;;;;;;;;21.10;92.40;;;;;;5096611;28;19911;-39
2023/06/02 03:24:25;;;;;;;;;;;21.10;92.40;;;;;;5097080;28;19904;-39
2023/06/02 03:26:55;;;;;;;;;;;21.10;92.40;;;;;;5096691;28;19904;-39
2023/06/02 03:29:20;;;;;;;;;;;21.10;92.50;;;;;;5096545;28;20027;-39
2023/06/02 03:31:46;;;;;;;;;;;21.10;92.50;;;;;;5096272;28;20363;-39
2023/06/02 03:34:11;;;;;;;;;;;21.10;92.50;;;;;;5096366;28;20250;-39
2023/06/02 03:36:37;;;;;;;;;;;21.10;92.50;;;;;;5096104;28;20236;-39
2023/06/02 03:39:05;;;;;;;;;;;21.10;92.50;;;;;;5096124;28;20408;-39
2023/06/02 03:41:30;;;;;;;;;;;21.10;92.50;;;;;;5096316;28;20347;-39
2023/06/02 03:43:56;;;;;;;;;;;21.10;92.50;;;;;;5096339;28;19923;-39
2023/06/02 03:46:22;;;;;;;;;;;21.10;92.50;;;;;;5096602;28;19904;-39
2023/06/02 03:48:47;;;;;;;;;;;21.10;92.50;;;;;;5096174;28;19908;-39
2023/06/02 03:51:13;;;;;;;;;;;21.10;92.50;;;;;;5096148;28;19908;-39
2023/06/02 03:53:38;;;;;;;;;;;21.10;92.50;;;;;;5095742;28;19904;-39
2023/06/02 03:56:04;;;;;;;;;;;21.10;92.50;;;;;;5095750;28;19908;-39
2023/06/02 03:58:30;;;;;;;;;;;21.10;92.50;;;;;;5096323;28;20239;-39
2023/06/02 04:00:56;;;;;;;;;;;21.10;92.70;;;;;;5095925;28;19911;-39
2023/06/02 04:03:22;;;;;;;;;;;21.10;92.50;;;;;;5095029;28;20026;-41
2023/06/02 04:05:48;;;;;;;;;;;21.10;92.50;;;;;;5095505;28;19943;-39
2023/06/02 04:08:14;;;;;;;;;;;21.20;92.50;;;;;;5095713;28;19915;-39
2023/06/02 04:10:40;;;;;;;;;;;21.20;92.50;;;;;;5095390;28;19908;-39
2023/06/02 04:13:06;;;;;;;;;;;21.20;92.70;;;;;;5095612;28;19991;-39
2023/06/02 04:15:31;;;;;;;;;;;21.20;92.50;;;;;;5095343;28;19997;-39
2023/06/02 04:17:57;;;;;;;;;;;21.20;92.40;;;;;;5095360;28;19958;-39
2023/06/02 04:20:22;;;;;;;;;;;21.20;92.40;;;;;;5095126;28;19904;-40
2023/06/02 04:22:48;;;;;;;;;;;21.20;92.40;;;;;;5095410;28;20007;-39
2023/06/02 04:25:14;;;;;;;;;;;21.30;92.40;;;;;;5095528;28;20280;-39
2023/06/02 04:27:39;;;;;;;;;;;21.30;92.30;;;;;;5076965;28;20313;-39
2023/06/02 04:30:05;;;;;;;;;;;21.30;92.30;;;;;;5095367;28;19909;-39
2023/06/02 04:32:30;;;;;;;;;;;21.30;92.20;;;;;;5095443;28;19970;-39
2023/06/02 04:34:56;;;;;;;;;;;21.30;92.00;;;;;;5095247;28;20325;-39
2023/06/02 04:37:21;;;;;;;;;;;21.30;91.90;;;;;;5095199;28;19904;-39
2023/06/02 04:39:49;;;;;;;;;;;21.30;91.90;;;;;;5095138;28;19927;-39
2023/06/02 04:42:15;;;;;;;;;;;21.30;91.80;;;;;;5095131;28;19908;-39
2023/06/02 04:44:40;;;;;;;;;;;21.30;91.80;;;;;;5094926;28;19969;-39
2023/06/02 04:47:06;;;;;;;;;;;21.30;91.80;;;;;;5095307;28;19907;-39
2023/06/02 04:49:31;;;;;;;;;;;21.30;91.80;;;;;;5076584;28;20247;-39
2023/06/02 04:51:57;;;;;;;;;;;21.30;91.80;;;;;;5094725;28;19908;-39
2023/06/02 04:54:23;;;;;;;;;;;21.30;91.80;;;;;;5094491;28;20266;-39
2023/06/02 04:56:48;;;;;;;;;;;21.30;91.80;;;;;;5094541;28;19904;-39
2023/06/02 04:59:14;;;;;;;;;;;21.40;91.90;;;;;;5094392;28;19914;-39
2023/06/02 05:01:39;;;;;;;;;;;21.40;91.90;;;;;;5094503;28;20361;-39
2023/06/02 05:04:05;;;;;;;;;;;21.30;91.90;;;;;;5094615;28;19904;-39
2023/06/02 05:06:30;;;;;;;;;;;21.40;91.90;;;;;;5094639;28;19912;-39
2023/06/02 05:08:56;;;;;;;;;;;21.40;91.90;;;;;;5094315;28;19908;-39
2023/06/02 05:11:23;;;;;;;;;;;21.40;91.90;;;;;;5094959;28;19957;-39
2023/06/02 05:13:48;;;;;;;;;;;21.40;91.90;;;;;;5093841;28;20492;-39
2023/06/02 05:16:14;;;;;;;;;;;21.40;91.90;;;;;;5094027;28;19944;-39
2023/06/02 05:18:39;;;;;;;;;;;21.40;91.90;;;;;;5094079;28;19904;-39
2023/06/02 05:21:05;;;;;;;;;;;21.40;91.90;;;;;;5094399;28;19910;-39
2023/06/02 05:23:30;;;;;;;;;;;21.40;91.90;;;;;;5094216;28;20365;-39
2023/06/02 05:25:56;;;;;;;;;;;21.40;91.90;;;;;;5094292;28;19904;-38
2023/06/02 05:28:21;;;;;;;;;;;21.40;92.00;;;;;;5094159;28;19908;-38
2023/06/02 05:30:47;;;;;;;;;;;21.40;92.00;;;;;;5076179;28;19908;-38
2023/06/02 05:33:12;;;;;;;;;;;21.40;92.00;;;;;;5093880;28;19911;-39
2023/06/02 05:35:37;;;;;;;;;;;21.40;92.10;;;;;;5093845;28;19947;-39
2023/06/02 05:38:03;;;;;;;;;;;21.40;92.10;;;;;;5092303;28;19908;-39
2023/06/02 05:40:28;;;;;;;;;;;21.40;92.10;;;;;;5093850;28;19908;-39
2023/06/02 05:42:54;;;;;;;;;;;21.40;92.10;;;;;;5093141;28;19918;-40
2023/06/02 05:45:19;;;;;;;;;;;21.40;92.10;;;;;;5093893;28;19930;-39
2023/06/02 05:47:45;;;;;;;;;;;21.40;92.10;;;;;;5075567;28;19912;-40
2023/06/02 05:50:11;;;;;;;;;;;21.40;92.20;;;;;;5093936;28;19958;-40
2023/06/02 05:52:36;;;;;;;;;;;21.40;92.20;;;;;;5093818;28;19904;-39
2023/06/02 05:55:02;;;;;;;;;;;21.40;92.20;;;;;;5099930;28;19908;-40
2023/06/02 05:57:27;;;;;;;;;;;21.40;92.20;;;;;;5095483;28;19915;-39
2023/06/02 05:59:53;;;;;;;;;;;21.40;92.30;;;;;;5093419;28;20234;-39
2023/06/02 06:02:18;;;;;;;;;;;21.40;92.30;;;;;;5106520;28;19914;-40
2023/06/02 06:04:44;;;;;;;;;;;21.40;92.30;;;;;;5092685;28;20003;-40
2023/06/02 06:07:09;;;;;;;;;;;21.40;92.30;;;;;;5097553;28;19912;-40
2023/06/02 06:09:35;;;;;;;;;;;21.40;92.30;;;;;;5095926;28;20350;-40
2023/06/02 06:12:00;;;;;;;;;;;21.40;92.30;;;;;;5096460;28;19916;-40
2023/06/02 06:14:26;;;;;;;;;;;21.40;92.30;;;;;;5097814;28;19908;-40
2023/06/02 06:16:51;;;;;;;;;;;21.40;92.30;;;;;;5097622;28;20346;-39
2023/06/02 06:19:18;;;;;;;;;;;21.40;92.30;;;;;;5096439;28;19908;-39
2023/06/02 06:21:43;;;;;;;;;;;21.40;92.40;;;;;;5093500;28;19911;-40
2023/06/02 06:24:09;;;;;;;;;;;21.40;92.40;;;;;;5093568;28;20261;-39
2023/06/02 06:26:34;;;;;;;;;;;21.40;92.40;;;;;;5096317;28;19988;-40
2023/06/02 06:29:00;;;;;;;;;;;21.40;92.40;;;;;;5096862;28;19912;-40
2023/06/02 06:31:25;;;;;;;;;;;21.40;92.40;;;;;;5096324;28;19912;-43
2023/06/02 06:33:51;;;;;;;;;;;21.40;92.50;;;;;;5095907;28;19915;-39
2023/06/02 06:36:17;;;;;;;;;;;21.40;92.50;;;;;;5097396;28;20288;-39
2023/06/02 06:38:43;;;;;;;;;;;21.40;92.50;;;;;;5097477;28;19904;-39
2023/06/02 06:41:08;;;;;;;;;;;21.40;92.60;;;;;;5080474;28;20377;-39
2023/06/02 06:43:34;;;;;;;;;;;21.40;92.60;;;;;;5092592;28;19928;-40
2023/06/02 06:45:59;;;;;;;;;;;21.40;91.00;;;;;;5112223;28;19919;-40
2023/06/02 06:48:25;;;;;;;;;;;21.40;91.70;;;;;;5104059;28;19922;-40
2023/06/02 06:50:50;;;;;;;;;;;21.40;92.00;;;;;;5095476;28;19916;-39
2023/06/02 06:53:16;;;;;;;;;;;21.40;92.20;;;;;;5099494;28;19912;-39
2023/06/02 06:55:42;;;;;;;;;;;21.40;92.30;;;;;;5078752;28;19912;-40
2023/06/02 06:58:07;;;;;;;;;;;21.40;92.40;;;;;;5096952;28;19923;-39
2023/06/02 07:00:33;;;;;;;;;;;21.40;92.40;;;;;;5109106;28;19980;-39
2023/06/02 07:02:59;;;;;;;;;;;21.40;92.40;;;;;;5096585;28;20378;-40
2023/06/02 07:05:24;;;;;;;;;;;21.40;92.40;;;;;;5087220;28;19912;-39
2023/06/02 07:07:50;;;;;;;;;;;21.40;92.40;;;;;;5116453;28;19916;-40
2023/06/02 07:10:16;;;;;;;;;;;21.40;92.40;;;;;;5102268;28;19912;-39
2023/06/02 07:12:42;;;;;;;;;;;21.40;92.40;;;;;;5109205;28;19908;-40
2023/06/02 07:15:07;;;;;;;;;;;21.40;92.40;;;;;;5102337;28;19919;-39
2023/06/02 07:17:33;;;;;;;;;;;21.40;92.40;;;;;;5096448;28;20254;-40
2023/06/02 07:19:58;;;;;;;;;;;21.40;92.40;;;;;;5096665;28;19916;-40
2023/06/02 07:22:24;;;;;;;;;;;21.40;92.40;;;;;;5096740;28;19908;-39
2023/06/02 07:24:49;;;;;;;;;;;21.40;92.40;;;;;;5096159;28;19911;-40
2023/06/02 07:27:15;;;;;;;;;;;21.40;92.40;;;;;;5095999;28;20259;-38
2023/06/02 07:29:40;;;;;;;;;;;21.40;92.40;;;;;;5095317;28;19909;-40
2023/06/02 07:32:07;;;;;;;;;;;21.40;92.50;;;;;;5076851;28;19969;-39
2023/06/02 07:34:32;;;;;;;;;;;21.40;92.50;;;;;;5077257;28;19908;-39
2023/06/02 07:37:00;;;;;;;;;;;21.40;92.40;;;;;;5093923;28;20324;-40
2023/06/02 07:39:26;;;;;;;;;;;21.40;92.50;;;;;;5104662;28;20330;-40
2023/06/02 07:41:51;;;;;;;;;;;21.40;92.50;;;;;;5093965;28;19915;-39
2023/06/02 07:44:17;;;;;;;;;;;21.40;92.40;;;;;;5095469;28;19919;-39
2023/06/02 07:46:43;;;;;;;;;;;21.40;92.40;;;;;;5094747;28;19915;-39
2023/06/02 07:49:09;;;;;;;;;;;21.40;92.50;;;;;;5093610;28;19945;-40
2023/06/02 07:51:34;;;;;;;;;;;21.40;90.20;;;;;;5105647;28;19916;-40
2023/06/02 07:54:00;;;;;;;;;;;21.40;89.80;;;;;;5094253;28;20354;-40
2023/06/02 07:56:25;;;;;;;;;;;21.40;90.50;;;;;;5103045;28;19904;-40
2023/06/02 07:58:51;;;;;;;;;;;21.40;91.00;;;;;;5083030;28;19908;-39
2023/06/02 08:01:16;;;;;;;;;;;21.40;91.30;;;;;;5095959;28;19912;-39
2023/06/02 08:03:42;;;;;;;;;;;21.40;91.50;;;;;;5095361;28;19960;-39
2023/06/02 08:06:07;;;;;;;;;;;21.40;91.60;;;;;;5095104;28;19908;-39
2023/06/02 08:08:33;;;;;;;;;;;21.40;91.70;;;;;;5095005;28;19912;-40
2023/06/02 08:10:59;;;;;;;;;;;21.40;91.80;;;;;;5092587;28;20007;-40
2023/06/02 08:13:24;;;;;;;;;;;21.40;91.80;;;;;;5094261;28;19912;-40
2023/06/02 08:15:50;;;;;;;;;;;21.40;91.80;;;;;;5095315;28;19957;-39
2023/06/02 08:18:15;;;;;;;;;;;21.40;91.90;;;;;;5095201;28;19977;-39
2023/06/02 08:20:41;;;;;;;;;;;21.40;91.90;;;;;;5095106;28;20251;-40
2023/06/02 08:23:08;;;;;;;;;;;21.40;92.00;;;;;;5095395;28;19908;-39
2023/06/02 08:25:37;;;;;;;;;;;21.50;92.00;;;;;;5095448;28;19908;-39
2023/06/02 08:28:05;;;;;;;;;;;21.40;92.10;;;;;;5095129;28;19912;-39
2023/06/02 08:30:32;;;;;;;;;;;21.40;92.10;;;;;;5095322;28;19912;-40
2023/06/02 08:32:59;;;;;;;;;;;21.40;92.10;;;;;;5095148;28;19997;-39
2023/06/02 08:35:25;;;;;;;;;;;21.50;92.20;;;;;;5095108;28;20418;-39
2023/06/02 08:37:50;;;;;;;;;;;21.50;92.20;;;;;;5094591;28;19985;-39
2023/06/02 08:40:19;;;;;;;;;;;21.40;92.20;;;;;;5094871;28;19908;-39
2023/06/02 08:42:44;;;;;;;;;;;21.40;92.20;;;;;;5094551;28;20317;-39
2023/06/02 08:45:10;;;;;;;;;;;21.40;92.20;;;;;;5094533;28;19974;-39
2023/06/02 08:47:39;;;;;;;;;;;21.40;92.20;;;;;;5094365;28;19919;-39
2023/06/02 08:50:05;;;;;;;;;;;21.50;92.30;;;;;;5094031;28;19916;-39
2023/06/02 08:52:31;;;;;;;;;;;21.40;92.30;;;;;;5094634;28;20370;-39
2023/06/02 08:54:57;;;;;;;;;;;21.40;92.20;;;;;;5094289;28;19919;-39
2023/06/02 08:57:22;;;;;;;;;;;21.40;92.10;;;;;;5076264;28;19966;-39
2023/06/02 08:59:48;;;;;;;;;;;21.40;92.10;;;;;;5094142;28;19908;-40
2023/06/02 09:02:14;;;;;;;;;;;21.40;92.10;;;;;;5094112;28;19908;-39
2023/06/02 09:04:40;;;;;;;;;;;21.50;92.10;;;;;;5075951;28;20255;-40
2023/06/02 09:07:11;;;;;;;;;;;21.40;92.10;;;;;;5093625;28;19909;-40
2023/06/02 09:09:40;;;;;;;;;;;21.40;92.20;;;;;;5094292;28;19933;-40
2023/06/02 09:12:08;;;;;;;;;;;21.40;92.20;;;;;;5094424;28;19915;-39
2023/06/02 09:14:33;;;;;;;;;;;21.50;92.30;;;;;;5093878;28;20371;-38
2023/06/02 09:16:59;;;;;;;;;;;21.40;92.30;;;;;;5093730;28;19908;-38
2023/06/02 09:19:24;;;;;;;;;;;21.40;92.30;;;;;;5094283;28;19918;-38
2023/06/02 09:21:50;;;;;;;;;;;21.50;92.40;;;;;;5094069;28;20405;-39
2023/06/02 09:24:29;;;;;;;;;;;21.40;92.30;;;;;;5094344;28;19930;-39
2023/06/02 09:26:55;;;;;;;;;;;21.40;92.30;;;;;;5094487;28;19913;-39
2023/06/02 09:29:20;;;;;;;;;;;21.40;92.30;;;;;;5094143;28;19923;-39
2023/06/02 09:31:52;;;;;;;;;;;21.50;92.40;;;;;;5094284;28;20336;-39
2023/06/02 09:34:23;;;;;;;;;;;21.50;92.40;;;;;;5093711;28;19908;-39
2023/06/02 09:36:50;;;;;;;;;;;21.50;92.40;;;;;;5093593;28;19908;-39
2023/06/02 09:39:35;;;;;;;;;;;21.50;92.40;;;;;;5093765;28;19908;-40
2023/06/02 09:42:01;;;;;;;;;;;21.50;92.40;;;;;;5094259;28;19915;-40
2023/06/02 09:44:27;;;;;;;;;;;21.50;92.40;;;;;;5094105;28;19920;-39
2023/06/02 09:46:52;;;;;;;;;;;21.40;92.40;;;;;;5093964;28;19931;-39
2023/06/02 09:49:18;;;;;;;;;;;21.50;92.30;;;;;;5093943;28;19912;-39
2023/06/02 09:51:43;;;;;;;;;;;21.50;92.30;;;;;;5093667;28;19919;-39
2023/06/02 09:54:09;;;;;;;;;;;21.50;92.30;;;;;;5094064;28;19908;-39
2023/06/02 09:56:36;;;;;;;;;;;21.40;92.20;;;;;;5093986;28;19919;-39
2023/06/02 09:59:03;;;;;;;;;;;21.50;92.30;;;;;;5093822;28;19908;-39
2023/06/02 10:01:28;;;;;;;;;;;21.50;92.30;;;;;;5097548;28;20331;-39
2023/06/02 10:03:54;;;;;;;;;;;21.50;92.30;;;;;;5097797;28;19912;-39
2023/06/02 10:06:25;;;;;;;;;;;21.50;92.30;;;;;;5097327;28;20316;-39
2023/06/02 10:09:10;;;;;;;;;;;21.50;92.20;;;;;;5097716;28;20014;-39
2023/06/02 10:11:41;;;;;;;;;;;21.50;92.10;;;;;;5097456;28;19965;-39
2023/06/02 10:14:21;;;;;;;;;;;21.50;92.10;;;;;;5097634;28;19931;-39
2023/06/02 10:17:10;;;;;;;;;;;21.40;92.20;;;;;;5097824;28;19908;-39
2023/06/02 10:19:57;;;;;;;;;;;21.40;92.20;;;;;;5097717;28;19988;-40
2023/06/02 10:22:26;;;;;;;;;;;21.50;92.20;;;;;;5097305;28;19908;-39
2023/06/02 10:25:03;;;;;;;;;;;21.50;92.20;;;;;;5097193;28;19912;-39
2023/06/02 10:27:33;;;;;;;;;;;21.50;92.10;;;;;;5096912;28;19966;-40
2023/06/02 10:29:59;;;;;;;;;;;21.50;92.10;;;;;;5097259;28;19912;-39
2023/06/02 10:32:33;;;;;;;;;;;21.50;92.20;;;;;;5097585;28;19921;-39
2023/06/02 10:34:59;;;;;;;;;;;21.50;92.20;;;;;;5097389;28;19908;-39
2023/06/02 10:37:24;;;;;;;;;;;21.50;92.20;;;;;;5097241;28;19952;-39
2023/06/02 10:39:54;;;;;;;;;;;21.50;92.30;;;;;;5097104;28;19908;-39
2023/06/02 10:42:20;;;;;;;;;;;21.50;92.20;;;;;;5087392;28;20363;-40
2023/06/02 10:44:47;;;;;;;;;;;21.50;92.20;;;;;;5093172;28;20347;-39
2023/06/02 10:47:18;;;;;;;;;;;21.50;92.20;;;;;;5096683;28;19991;-39
2023/06/02 10:50:01;;;;;;;;;;;21.50;92.00;;;;;;5098624;28;20350;-40
2023/06/02 10:52:30;;;;;;;;;;;21.50;91.90;;;;;;5108665;28;19913;-40
2023/06/02 10:55:11;;;;;;;;;;;21.50;91.90;;;;;;5094495;28;19912;-39
2023/06/02 10:57:55;;;;;;;;;;;21.50;91.80;;;;;;5113964;28;19915;-39
2023/06/02 11:00:32;;;;;;;;;;;21.50;91.90;;;;;;5101348;28;20007;-44
2023/06/02 11:03:17;;;;;;;;;;;21.50;91.90;;;;;;5096791;28;19919;-39
2023/06/02 11:05:43;;;;;;;;;;;21.50;91.90;;;;;;5100166;28;20386;-39
2023/06/02 11:08:11;;;;;;;;;;;21.50;91.90;;;;;;5116813;28;19938;-39
2023/06/02 11:10:45;;;;;;;;;;;21.50;92.00;;;;;;5114267;28;20436;-38
2023/06/02 11:13:13;;;;;;;;;;;21.50;92.00;;;;;;5113775;28;20297;-39
2023/06/02 11:15:39;;;;;;;;;;;21.50;92.10;;;;;;5114147;28;19919;-40
2023/06/02 11:18:31;;;;;;;;;;;21.50;92.10;;;;;;5100007;28;20372;-39
2023/06/02 11:21:03;;;;;;;;;;;21.50;92.10;;;;;;5077485;28;19914;-38
2023/06/02 11:23:29;;;;;;;;;;;21.50;92.10;;;;;;5113638;28;19912;-39
2023/06/02 11:26:01;;;;;;;;;;;21.50;92.10;;;;;;5096448;28;19920;-40
2023/06/02 11:28:27;;;;;;;;;;;21.50;92.10;;;;;;5093888;28;19959;-39
2023/06/02 11:31:11;;;;;;;;;;;21.50;92.10;;;;;;5109975;28;19916;-43
2023/06/02 11:33:37;;;;;;;;;;;21.50;92.10;;;;;;5094832;28;19912;-39
2023/06/02 11:36:10;;;;;;;;;;;21.50;92.20;;;;;;5100797;28;19918;-41
2023/06/02 11:38:38;;;;;;;;;;;21.50;92.10;;;;;;5096297;28;19915;-40
2023/06/02 11:41:10;;;;;;;;;;;21.50;92.30;;;;;;5104428;28;19919;-40
2023/06/02 11:43:36;;;;;;;;;;;21.50;92.10;;;;;;5095860;28;19999;-39
2023/06/02 11:46:10;;;;;;;;;;;21.50;92.10;;;;;;5100151;28;19911;-40
2023/06/02 11:48:38;;;;;;;;;;;21.50;92.10;;;;;;5101738;28;19962;-40
2023/06/02 11:51:13;;;;;;;;;;;21.50;92.10;;;;;;5095650;28;20019;-40
2023/06/02 11:53:44;;;;;;;;;;;21.50;92.10;;;;;;5100914;28;20346;-40
2023/06/02 11:56:10;;;;;;;;;;;21.50;92.10;;;;;;5113798;28;19912;-40
2023/06/02 11:58:43;;;;;;;;;;;21.50;92.10;;;;;;5101894;28;19918;-39
2023/06/02 12:01:18;;;;;;;;;;;21.50;92.00;;;;;;5109138;28;19916;-39
2023/06/02 12:03:53;;;;;;;;;;;21.50;91.90;;;;;;5096271;28;20343;-40
2023/06/02 12:06:18;;;;;;;;;;;21.50;91.90;;;;;;5095244;28;19924;-40
2023/06/02 12:08:46;;;;;;;;;;;21.50;91.90;;;;;;5105007;28;19935;-40
2023/06/02 12:11:15;;;;;;;;;;;21.50;92.00;;;;;;5091440;28;19951;-39
2023/06/02 12:13:41;;;;;;;;;;;21.50;91.90;;;;;;5103497;28;19919;-39
2023/06/02 12:16:19;;;;;;;;;;;21.50;92.00;;;;;;5098534;28;19912;-40
2023/06/02 12:18:45;;;;;;;;;;;21.50;90.50;;;;;;5094911;28;19916;-40
2023/06/02 12:21:26;;;;;;;;;;;21.50;90.50;;;;;;5095129;28;19991;-40
2023/06/02 12:23:52;;;;;;;;;;;21.50;90.60;;;;;;5094402;28;19916;-39
2023/06/02 12:26:17;;;;;;;;;;;21.50;90.90;;;;;;5095099;28;19908;-39
2023/06/02 12:28:43;;;;;;;;;;;21.50;91.10;;;;;;5077086;28;19973;-39
2023/06/02 12:31:09;;;;;;;;;;;21.50;91.20;;;;;;5095143;28;19912;-40
2023/06/02 12:33:34;;;;;;;;;;;21.50;91.40;;;;;;5095258;28;20414;-40
2023/06/02 12:36:00;;;;;;;;;;;21.50;91.50;;;;;;5095030;28;19909;-40
2023/06/02 12:38:27;;;;;;;;;;;21.50;91.50;;;;;;5094490;28;19908;-39
2023/06/02 12:40:52;;;;;;;;;;;21.50;91.50;;;;;;5094945;28;19908;-39
2023/06/02 12:43:19;;;;;;;;;;;21.50;91.50;;;;;;5094834;28;20464;-39
2023/06/02 12:45:53;;;;;;;;;;;21.50;91.60;;;;;;5091045;28;19918;-39
2023/06/02 12:48:19;;;;;;;;;;;21.50;91.70;;;;;;5091199;28;20342;-39
2023/06/02 12:50:45;;;;;;;;;;;21.50;91.60;;;;;;5091506;28;19913;-39
2023/06/02 12:53:10;;;;;;;;;;;21.50;91.50;;;;;;5091104;28;19962;-39
2023/06/02 12:55:36;;;;;;;;;;;21.50;91.50;;;;;;5091593;28;20326;-40
2023/06/02 12:58:01;;;;;;;;;;;21.50;91.50;;;;;;5091081;28;19991;-40
2023/06/02 13:00:27;;;;;;;;;;;21.50;91.50;;;;;;5090810;28;19909;-40
2023/06/02 13:02:52;;;;;;;;;;;21.50;91.50;;;;;;5090802;28;19931;-40
2023/06/02 13:05:18;;;;;;;;;;;21.50;91.60;;;;;;5090956;28;20298;-40
2023/06/02 13:07:44;;;;;;;;;;;21.50;91.60;;;;;;5091056;28;19919;-39
2023/06/02 13:10:10;;;;;;;;;;;21.50;91.70;;;;;;5090572;28;19961;-39
2023/06/02 13:12:37;;;;;;;;;;;21.50;91.70;;;;;;5090914;28;19916;-39
2023/06/02 13:15:05;;;;;;;;;;;21.50;91.70;;;;;;5090684;28;19908;-39
2023/06/02 13:17:31;;;;;;;;;;;21.50;91.70;;;;;;5090364;28;19991;-39
2023/06/02 13:19:57;;;;;;;;;;;21.50;91.80;;;;;;5090609;28;19955;-39
2023/06/02 13:22:23;;;;;;;;;;;21.50;91.80;;;;;;5090673;28;19920;-39
2023/06/02 13:24:48;;;;;;;;;;;21.50;91.80;;;;;;5090506;28;19920;-39
2023/06/02 13:27:14;;;;;;;;;;;21.50;91.80;;;;;;5090608;28;19919;-39
2023/06/02 13:29:39;;;;;;;;;;;21.50;91.90;;;;;;5090306;28;19908;-39
2023/06/02 13:32:05;;;;;;;;;;;21.50;91.90;;;;;;5090351;28;19915;-40
2023/06/02 13:34:32;;;;;;;;;;;21.50;91.80;;;;;;5090519;28;19909;-39
2023/06/02 13:36:58;;;;;;;;;;;21.50;91.80;;;;;;5090231;28;19909;-39
2023/06/02 13:39:23;;;;;;;;;;;21.50;91.80;;;;;;5090085;28;19908;-39
2023/06/02 13:41:49;;;;;;;;;;;21.50;91.80;;;;;;5090148;28;19959;-39
2023/06/02 13:44:18;;;;;;;;;;;21.50;91.90;;;;;;5096958;28;19969;-39
2023/06/02 13:46:44;;;;;;;;;;;21.50;91.90;;;;;;5110531;28;19908;-39
2023/06/02 13:49:09;;;;;;;;;;;21.50;91.90;;;;;;5110668;28;20037;-39
2023/06/02 13:51:35;;;;;;;;;;;21.50;91.90;;;;;;5110395;28;20007;-39
2023/06/02 13:54:01;;;;;;;;;;;21.50;91.80;;;;;;5110502;28;19915;-39
2023/06/02 13:56:27;;;;;;;;;;;21.50;91.80;;;;;;5101401;28;19908;-39
2023/06/02 13:58:52;;;;;;;;;;;21.50;91.80;;;;;;5096860;28;19915;-39
2023/06/02 14:01:18;;;;;;;;;;;21.50;91.70;;;;;;5096976;28;20290;-39
2023/06/02 14:03:43;;;;;;;;;;;21.50;91.70;;;;;;5096617;28;19959;-39
2023/06/02 14:06:09;;;;;;;;;;;21.50;91.70;;;;;;5096507;28;20278;-39
2023/06/02 14:08:34;;;;;;;;;;;21.50;91.70;;;;;;5096738;28;19969;-39
2023/06/02 14:11:00;;;;;;;;;;;21.50;91.70;;;;;;5096366;28;20003;-39
2023/06/02 14:13:26;;;;;;;;;;;21.50;91.80;;;;;;5078132;28;19915;-39
2023/06/02 14:15:52;;;;;;;;;;;21.50;91.70;;;;;;5096216;28;20390;-39